Time;durP1;ratioP1;P1;durP2;ratioP2;P2;SDS_P1;SDS_P2;PMS_P1;PMS_P2;Temp;Humidity;BMP_temperature;BMP_pressure;BME280_temperature;BME280_humidity;BME280_pressure;Samples;Min_cycle;Max_cycle;Signal;HPM_P1;HPM_P2
2022/07/05 00:00:37;;;;;;;9.90;9.60;;;19.90;99.90;;;;;;5079238;28;20292;-82
2022/07/05 00:03:04;;;;;;;9.88;9.57;;;19.90;99.90;;;;;;5080536;28;20237;-81
2022/07/05 00:05:32;;;;;;;9.68;9.38;;;19.80;99.90;;;;;;5078170;28;20400;-81
2022/07/05 00:08:00;;;;;;;9.70;9.40;;;19.80;99.90;;;;;;5079968;28;20230;-81
2022/07/05 00:10:27;;;;;;;9.90;9.60;;;19.70;99.90;;;;;;5082276;28;20260;-81
2022/07/05 00:12:55;;;;;;;9.80;9.50;;;19.60;99.90;;;;;;5083261;28;20321;-81
2022/07/05 00:15:23;;;;;;;9.80;9.50;;;19.50;99.90;;;;;;5081509;28;20273;-81
2022/07/05 00:17:52;;;;;;;9.68;9.38;;;19.50;99.90;;;;;;5082188;28;20290;-81
2022/07/05 00:20:19;;;;;;;9.90;9.60;;;19.40;99.90;;;;;;5080714;28;20295;-81
2022/07/05 00:22:47;;;;;;;10.00;9.70;;;19.30;99.90;;;;;;5082102;28;20280;-81
2022/07/05 00:25:15;;;;;;;9.80;9.50;;;19.30;99.90;;;;;;5080955;28;20237;-82
2022/07/05 00:27:42;;;;;;;9.82;9.52;;;19.30;99.90;;;;;;5081479;28;20241;-81
2022/07/05 00:30:12;;;;;;;9.80;9.50;;;19.20;99.90;;;;;;5081622;28;20244;-82
2022/07/05 00:32:40;;;;;;;9.80;9.50;;;19.10;99.90;;;;;;5090467;28;20268;-81
2022/07/05 00:35:09;;;;;;;9.70;9.40;;;19.10;99.90;;;;;;5093187;28;20222;-82
2022/07/05 00:37:37;;;;;;;9.80;9.50;;;19.10;99.90;;;;;;5092588;28;20246;-81
2022/07/05 00:40:07;;;;;;;9.80;9.50;;;19.10;99.90;;;;;;5088118;28;20230;-81
2022/07/05 00:42:35;;;;;;;10.30;10.00;;;19.00;99.90;;;;;;5083291;28;20307;-82
2022/07/05 00:45:05;;;;;;;10.60;10.30;;;19.10;99.90;;;;;;5082773;28;20257;-82
2022/07/05 00:47:33;;;;;;;10.48;10.18;;;19.10;99.90;;;;;;5082229;28;20285;-81
2022/07/05 00:50:00;;;;;;;10.57;10.27;;;19.00;99.90;;;;;;5082036;28;20324;-82
2022/07/05 00:52:30;;;;;;;10.38;10.07;;;18.90;99.90;;;;;;5083012;28;20321;-81
2022/07/05 00:54:57;;;;;;;10.60;10.30;;;18.90;99.90;;;;;;5081325;28;20264;-82
2022/07/05 00:57:25;;;;;;;10.50;10.20;;;18.80;99.90;;;;;;5081455;28;20276;-81
2022/07/05 00:59:53;;;;;;;10.55;10.25;;;18.80;99.90;;;;;;5084495;28;20321;-81
2022/07/05 01:02:22;;;;;;;10.40;10.10;;;18.70;99.90;;;;;;5081823;28;20269;-81
2022/07/05 01:04:51;;;;;;;10.68;10.38;;;18.60;99.90;;;;;;5080661;28;20236;-82
2022/07/05 01:07:22;;;;;;;10.50;10.20;;;18.60;99.90;;;;;;5081568;28;20234;-81
2022/07/05 01:09:51;;;;;;;10.43;10.13;;;18.50;99.90;;;;;;5080277;28;20230;-81
2022/07/05 01:12:20;;;;;;;10.30;10.00;;;18.50;99.90;;;;;;5080607;28;20233;-82
2022/07/05 01:15:08;;;;;;;10.40;10.10;;;18.40;99.90;;;;;;5080273;28;20300;-81
2022/07/05 01:17:37;;;;;;;10.45;10.15;;;18.40;99.90;;;;;;5080426;28;20226;-82
2022/07/05 01:20:07;;;;;;;10.55;10.25;;;18.40;99.90;;;;;;5079087;28;20242;-82
2022/07/05 01:22:53;;;;;;;10.65;10.35;;;18.40;99.90;;;;;;5080917;28;20317;-81
2022/07/05 01:25:22;;;;;;;10.40;10.10;;;18.30;99.90;;;;;;5081094;28;20241;-82
2022/07/05 01:27:50;;;;;;;10.40;10.10;;;18.30;99.90;;;;;;5080895;28;20245;-81
2022/07/05 01:30:18;;;;;;;10.20;9.90;;;18.30;99.90;;;;;;5080745;28;20252;-82
2022/07/05 01:32:46;;;;;;;10.30;10.00;;;18.30;99.90;;;;;;5080641;28;20238;-81
2022/07/05 01:35:20;;;;;;;10.50;10.20;;;18.20;99.90;;;;;;5079940;28;20234;-81
2022/07/05 01:37:49;;;;;;;10.52;10.23;;;18.10;99.90;;;;;;5080710;28;20280;-81
2022/07/05 01:40:18;;;;;;;10.40;10.10;;;18.10;99.90;;;;;;5080119;28;20234;-82
2022/07/05 01:42:46;;;;;;;10.20;9.90;;;18.00;99.90;;;;;;5077808;28;20324;-81
2022/07/05 01:45:38;;;;;;;10.25;9.95;;;18.10;99.90;;;;;;5077606;28;20264;-81
2022/07/05 01:48:03;;;;;;;10.30;10.00;;;18.10;99.90;;;;;;5077233;28;20241;-82
2022/07/05 01:50:36;;;;;;;10.23;9.93;;;18.10;99.90;;;;;;5077204;28;20256;-82
2022/07/05 01:53:06;;;;;;;10.35;10.05;;;18.10;99.90;;;;;;5077847;28;20320;-81
2022/07/05 01:55:34;;;;;;;10.48;10.18;;;18.10;99.90;;;;;;5077277;28;20236;-82
2022/07/05 01:58:02;;;;;;;10.40;10.10;;;18.10;99.90;;;;;;5077542;28;20242;-82
2022/07/05 02:00:29;;;;;;;10.30;10.00;;;18.10;99.90;;;;;;5077488;28;20237;-82
2022/07/05 02:02:59;;;;;;;10.50;10.20;;;18.20;99.90;;;;;;5078126;28;20232;-82
2022/07/05 02:05:28;;;;;;;10.50;10.20;;;18.10;99.90;;;;;;5077598;28;20241;-82
2022/07/05 02:07:56;;;;;;;10.38;10.07;;;18.00;99.90;;;;;;5077528;28;20242;-81
2022/07/05 02:10:25;;;;;;;10.10;9.80;;;18.00;99.90;;;;;;5077348;28;20238;-82
2022/07/05 02:12:52;;;;;;;9.93;9.63;;;17.90;99.90;;;;;;5077519;28;20234;-81
2022/07/05 02:15:20;;;;;;;10.30;10.00;;;17.80;99.90;;;;;;5077290;28;20871;-82
2022/07/05 02:17:47;;;;;;;10.20;9.90;;;17.80;99.90;;;;;;5077648;28;20316;-82
2022/07/05 02:20:15;;;;;;;10.07;9.77;;;17.70;99.90;;;;;;5077169;28;20291;-82
2022/07/05 02:22:43;;;;;;;10.13;9.82;;;17.60;99.90;;;;;;5077879;28;20767;-82
2022/07/05 02:25:10;;;;;;;10.02;9.73;;;17.60;99.90;;;;;;5078284;28;20226;-82
2022/07/05 02:27:39;;;;;;;10.10;9.80;;;17.50;99.90;;;;;;5078108;28;20280;-81
2022/07/05 02:30:09;;;;;;;10.10;9.80;;;17.50;99.90;;;;;;5078207;28;20229;-81
2022/07/05 02:32:36;;;;;;;10.30;10.00;;;17.50;99.90;;;;;;5077757;28;20230;-81
2022/07/05 02:35:05;;;;;;;10.20;9.90;;;17.50;99.90;;;;;;5077796;28;20244;-82
2022/07/05 02:37:32;;;;;;;10.23;9.93;;;17.50;99.90;;;;;;5078408;28;20262;-82
2022/07/05 02:40:00;;;;;;;10.20;9.90;;;17.40;99.90;;;;;;5077985;28;20314;-82
2022/07/05 02:42:27;;;;;;;10.20;9.90;;;17.50;99.90;;;;;;5077542;28;20233;-82
2022/07/05 02:44:56;;;;;;;10.10;9.80;;;17.50;99.90;;;;;;5077325;28;20260;-82
2022/07/05 02:47:24;;;;;;;10.32;10.02;;;17.50;99.90;;;;;;5078733;28;20230;-81
2022/07/05 02:49:54;;;;;;;10.63;10.32;;;17.40;99.90;;;;;;5077793;28;20230;-81
2022/07/05 02:52:22;;;;;;;10.93;10.63;;;17.40;99.90;;;;;;5078196;28;20285;-81
2022/07/05 02:54:49;;;;;;;10.50;10.20;;;17.40;99.90;;;;;;5077609;28;20269;-81
2022/07/05 02:57:17;;;;;;;10.90;10.60;;;17.40;99.90;;;;;;5077531;28;20316;-82
2022/07/05 02:59:44;;;;;;;10.80;10.50;;;17.30;99.90;;;;;;5077427;28;20316;-82
2022/07/05 03:02:13;;;;;;;10.77;10.48;;;17.30;99.90;;;;;;5077106;28;20529;-81
2022/07/05 03:04:41;;;;;;;10.70;10.40;;;17.20;99.90;;;;;;5077561;28;20401;-81
2022/07/05 03:07:09;;;;;;;10.50;10.20;;;17.20;99.90;;;;;;5077635;28;20297;-82
2022/07/05 03:09:36;;;;;;;11.20;10.90;;;17.20;99.90;;;;;;5077474;28;20322;-82
2022/07/05 03:12:05;;;;;;;10.93;10.63;;;17.20;99.90;;;;;;5077931;28;20317;-81
2022/07/05 03:14:32;;;;;;;10.90;10.60;;;17.10;99.90;;;;;;5077551;28;20265;-82
2022/07/05 03:17:00;;;;;;;10.60;10.30;;;17.00;99.90;;;;;;5078124;28;20240;-81
2022/07/05 03:19:29;;;;;;;10.57;10.27;;;17.00;99.90;;;;;;5077922;28;20229;-82
2022/07/05 03:21:56;;;;;;;10.75;10.45;;;16.90;99.90;;;;;;5087069;28;20692;-82
2022/07/05 03:24:24;;;;;;;10.50;10.20;;;16.80;99.90;;;;;;5093641;28;20230;-82
2022/07/05 03:26:51;;;;;;;10.30;10.00;;;16.80;99.90;;;;;;5093984;28;20226;-82
2022/07/05 03:29:19;;;;;;;10.40;10.10;;;16.70;99.90;;;;;;5082012;28;20281;-82
2022/07/05 03:31:46;;;;;;;10.30;10.00;;;16.60;99.90;;;;;;5082090;28;20329;-82
2022/07/05 03:34:14;;;;;;;10.10;9.80;;;16.60;99.90;;;;;;5086654;28;20257;-82
2022/07/05 03:36:43;;;;;;;10.40;10.10;;;16.60;99.90;;;;;;5079908;28;20234;-82
2022/07/05 03:39:11;;;;;;;10.70;10.40;;;16.50;99.90;;;;;;5079693;28;20230;-81
2022/07/05 03:41:38;;;;;;;10.40;10.10;;;16.50;99.90;;;;;;5079873;28;20226;-82
2022/07/05 03:44:06;;;;;;;10.23;9.93;;;16.50;99.90;;;;;;5082236;28;20249;-82
2022/07/05 03:46:33;;;;;;;10.10;9.80;;;16.50;99.90;;;;;;5083893;28;20312;-82
2022/07/05 03:49:00;;;;;;;10.10;9.80;;;16.40;99.90;;;;;;5083441;28;20278;-82
2022/07/05 03:51:28;;;;;;;10.00;9.70;;;16.40;99.90;;;;;;5082775;28;20272;-81
2022/07/05 03:53:57;;;;;;;9.90;9.60;;;16.30;99.90;;;;;;5082688;28;20234;-81
2022/07/05 03:56:25;;;;;;;9.70;9.40;;;16.30;99.90;;;;;;5082565;28;20222;-81
2022/07/05 03:58:53;;;;;;;10.10;9.80;;;16.30;99.90;;;;;;5083405;28;20232;-81
2022/07/05 04:01:21;;;;;;;10.07;9.77;;;16.20;99.90;;;;;;5082320;28;20244;-82
2022/07/05 04:03:48;;;;;;;10.30;10.00;;;16.20;99.90;;;;;;5082146;28;20704;-82
2022/07/05 04:06:16;;;;;;;10.25;9.95;;;16.20;99.90;;;;;;5081670;28;20240;-82
2022/07/05 04:08:43;;;;;;;10.30;10.00;;;16.20;99.90;;;;;;5091876;28;20221;-82
2022/07/05 04:11:13;;;;;;;10.20;9.90;;;16.20;99.90;;;;;;5083085;28;20234;-81
2022/07/05 04:13:41;;;;;;;10.18;9.88;;;16.20;99.90;;;;;;5083101;28;20234;-81
2022/07/05 04:16:09;;;;;;;10.05;9.75;;;16.20;99.90;;;;;;5082909;28;20257;-81
2022/07/05 04:18:36;;;;;;;10.40;10.10;;;16.20;99.90;;;;;;5085348;28;20236;-82
2022/07/05 04:21:04;;;;;;;10.15;9.85;;;16.20;99.90;;;;;;5082275;28;20248;-82
2022/07/05 04:23:32;;;;;;;10.15;9.85;;;16.20;99.90;;;;;;5082920;28;20256;-81
2022/07/05 04:26:02;;;;;;;9.88;9.57;;;16.20;99.90;;;;;;5082738;28;20222;-81
2022/07/05 04:28:31;;;;;;;10.27;9.98;;;16.20;99.90;;;;;;5082647;28;20249;-82
2022/07/05 04:30:59;;;;;;;10.55;10.25;;;16.20;99.90;;;;;;5082696;28;20240;-82
2022/07/05 04:33:26;;;;;;;9.82;9.52;;;16.20;99.90;;;;;;5082752;28;20329;-82
2022/07/05 04:35:54;;;;;;;9.90;9.60;;;16.20;99.90;;;;;;5081965;28;20695;-81
2022/07/05 04:38:22;;;;;;;10.07;9.77;;;16.30;99.90;;;;;;5082830;28;20282;-81
2022/07/05 04:40:49;;;;;;;10.25;9.95;;;16.30;99.90;;;;;;5083061;28;20241;-81
2022/07/05 04:43:17;;;;;;;10.30;10.00;;;16.40;99.90;;;;;;5083011;28;20333;-82
2022/07/05 04:45:46;;;;;;;10.15;9.85;;;16.50;99.90;;;;;;5082059;28;20818;-81
2022/07/05 04:48:13;;;;;;;10.20;9.90;;;16.50;99.90;;;;;;5081883;28;20222;-82
2022/07/05 04:50:40;;;;;;;10.20;9.90;;;16.50;99.90;;;;;;5082598;28;20320;-81
2022/07/05 04:53:08;;;;;;;10.20;9.90;;;16.60;99.90;;;;;;5082809;28;20245;-81
2022/07/05 04:55:35;;;;;;;10.18;9.88;;;16.70;99.90;;;;;;5082300;28;20242;-81
2022/07/05 04:58:03;;;;;;;10.40;10.10;;;16.70;99.90;;;;;;5092239;28;20289;-81
2022/07/05 05:00:30;;;;;;;10.40;10.10;;;16.90;99.90;;;;;;5099618;28;20289;-81
2022/07/05 05:02:59;;;;;;;10.60;10.30;;;16.90;99.90;;;;;;5086143;28;20326;-81
2022/07/05 05:05:27;;;;;;;10.68;10.38;;;17.00;99.90;;;;;;5081536;28;20321;-82
2022/07/05 05:07:54;;;;;;;10.75;10.45;;;17.10;99.90;;;;;;5080382;28;20225;-81
2022/07/05 05:10:22;;;;;;;10.50;10.20;;;17.20;99.90;;;;;;5080665;28;20237;-81
2022/07/05 05:12:49;;;;;;;10.60;10.30;;;17.30;99.90;;;;;;5081122;28;20229;-81
2022/07/05 05:15:17;;;;;;;10.50;10.20;;;17.40;99.90;;;;;;5082906;28;20238;-81
2022/07/05 05:17:45;;;;;;;10.80;10.50;;;17.40;99.90;;;;;;5080731;28;20797;-81
2022/07/05 05:20:17;;;;;;;11.43;11.02;;;17.50;99.90;;;;;;5080877;28;20250;-80
2022/07/05 05:22:45;;;;;;;11.50;11.10;;;17.50;99.90;;;;;;5078391;28;20232;-80
2022/07/05 05:25:13;;;;;;;11.45;11.05;;;17.60;99.90;;;;;;5079413;28;20262;-79
2022/07/05 05:27:45;;;;;;;11.35;10.95;;;17.70;99.90;;;;;;5084091;28;20781;-80
2022/07/05 05:30:15;;;;;;;11.40;11.00;;;17.80;99.90;;;;;;5079665;28;20234;-80
2022/07/05 05:32:42;;;;;;;11.73;11.32;;;17.90;99.90;;;;;;5080093;28;20290;-80
2022/07/05 05:35:10;;;;;;;11.30;10.90;;;18.10;99.90;;;;;;5078778;28;20265;-80
2022/07/05 05:37:57;;;;;;;11.52;11.13;;;18.20;99.90;;;;;;5078971;28;20228;-80
2022/07/05 05:40:26;;;;;;;11.60;11.20;;;18.30;99.90;;;;;;5078972;28;20268;-80
2022/07/05 05:42:55;;;;;;;11.60;11.20;;;18.40;99.90;;;;;;5079075;28;20240;-79
2022/07/05 05:45:23;;;;;;;11.77;11.38;;;18.50;99.90;;;;;;5078765;28;20234;-80
2022/07/05 05:47:52;;;;;;;11.52;11.13;;;18.60;99.90;;;;;;5079154;28;20286;-79
2022/07/05 05:50:21;;;;;;;11.10;10.80;;;18.60;99.90;;;;;;5078627;28;20297;-79
2022/07/05 05:52:49;;;;;;;11.43;11.02;;;18.70;99.90;;;;;;5078301;28;20302;-79
2022/07/05 05:55:18;;;;;;;11.80;11.40;;;18.80;99.90;;;;;;5077921;28;20293;-79
2022/07/05 05:57:45;;;;;;;11.73;11.32;;;18.90;99.90;;;;;;5081362;28;20254;-79
2022/07/05 06:00:14;;;;;;;11.50;11.10;;;19.10;99.90;;;;;;5079128;28;20689;-79
2022/07/05 06:02:42;;;;;;;11.73;11.32;;;19.30;99.90;;;;;;5079143;28;20292;-79
2022/07/05 06:05:10;;;;;;;11.57;11.18;;;19.30;99.90;;;;;;5077754;28;20226;-78
2022/07/05 06:07:50;;;;;;;11.70;11.30;;;19.50;99.90;;;;;;5077565;28;20254;-79
2022/07/05 06:10:21;;;;;;;11.80;11.40;;;19.60;99.90;;;;;;5078560;28;20234;-79
2022/07/05 06:12:50;;;;;;;11.75;11.35;;;19.70;99.90;;;;;;5078921;28;20236;-80
2022/07/05 06:15:18;;;;;;;11.93;11.52;;;19.90;99.90;;;;;;5078672;28;20242;-80
2022/07/05 06:17:46;;;;;;;12.15;11.75;;;19.90;99.90;;;;;;5080068;28;20317;-80
2022/07/05 06:20:17;;;;;;;11.80;11.40;;;19.80;99.90;;;;;;5077557;28;20321;-80
2022/07/05 06:22:46;;;;;;;11.65;11.25;;;19.90;99.90;;;;;;5078970;28;20265;-79
2022/07/05 06:25:13;;;;;;;12.00;11.60;;;20.10;99.90;;;;;;5078779;28;20291;-79
2022/07/05 06:27:43;;;;;;;11.68;11.27;;;20.30;99.90;;;;;;5086733;28;20222;-79
2022/07/05 06:30:14;;;;;;;11.93;11.52;;;20.40;99.90;;;;;;5087166;28;20234;-79
2022/07/05 06:32:41;;;;;;;11.75;11.35;;;20.60;99.90;;;;;;5087102;28;20294;-79
2022/07/05 06:35:10;;;;;;;11.85;11.45;;;20.70;99.90;;;;;;5085688;28;20281;-79
2022/07/05 06:37:45;;;;;;;12.20;11.80;;;20.80;99.90;;;;;;5086676;28;20290;-80
2022/07/05 06:40:15;;;;;;;11.85;11.45;;;20.90;99.90;;;;;;5086181;28;20340;-79
2022/07/05 06:42:44;;;;;;;11.77;11.38;;;20.90;99.90;;;;;;5086270;28;20257;-80
2022/07/05 06:45:12;;;;;;;11.85;11.45;;;21.00;99.90;;;;;;5087386;28;20287;-79
2022/07/05 06:47:40;;;;;;;11.68;11.27;;;21.00;99.90;;;;;;5096643;27;20222;-78
2022/07/05 06:50:10;;;;;;;11.77;11.38;;;20.90;99.90;;;;;;5098516;27;20218;-78
2022/07/05 06:52:39;;;;;;;12.00;11.60;;;21.00;99.90;;;;;;5096544;27;20293;-80
2022/07/05 06:55:08;;;;;;;12.10;11.70;;;21.10;99.90;;;;;;5097912;27;20233;-79
2022/07/05 06:57:35;;;;;;;11.98;11.57;;;21.20;99.90;;;;;;5098835;27;20218;-79
2022/07/05 07:00:06;;;;;;;11.90;11.50;;;21.30;99.90;;;;;;5098866;27;20230;-79
2022/07/05 07:02:33;;;;;;;11.60;11.20;;;21.40;99.90;;;;;;5098500;27;20264;-79
2022/07/05 07:05:01;;;;;;;11.75;11.35;;;21.50;99.90;;;;;;5099159;27;20288;-79
2022/07/05 07:10:14;;;;;;;11.80;11.40;;;21.70;99.90;;;;;;5098947;28;20229;-79
2022/07/05 07:12:41;;;;;;;11.75;11.35;;;22.00;99.90;;;;;;5098926;27;20229;-79
2022/07/05 07:15:11;;;;;;;11.65;11.25;;;22.00;99.90;;;;;;5095459;28;20337;-80
2022/07/05 07:17:39;;;;;;;11.73;11.32;;;22.10;99.90;;;;;;5096597;28;20210;-81
2022/07/05 07:20:07;;;;;;;11.68;11.27;;;22.20;99.90;;;;;;5097611;28;20258;-79
2022/07/05 07:22:35;;;;;;;11.77;11.38;;;22.40;99.90;;;;;;5097718;28;20293;-79
2022/07/05 07:25:04;;;;;;;11.98;11.57;;;22.60;99.90;;;;;;5097143;28;20262;-79
2022/07/05 07:27:32;;;;;;;12.07;11.68;;;22.80;99.90;;;;;;5097247;28;20222;-80
2022/07/05 07:30:00;;;;;;;11.85;11.45;;;23.00;99.90;;;;;;5091176;28;20237;-79
2022/07/05 07:32:29;;;;;;;11.63;11.23;;;23.00;99.90;;;;;;5084948;28;20285;-81
2022/07/05 07:34:56;;;;;;;11.88;11.48;;;23.10;99.90;;;;;;5080250;28;20234;-81
2022/07/05 07:37:24;;;;;;;11.85;11.45;;;23.20;99.90;;;;;;5080133;28;20313;-81
2022/07/05 07:39:52;;;;;;;12.10;11.70;;;23.40;99.90;;;;;;5080863;28;20330;-81
2022/07/05 07:42:19;;;;;;;11.90;11.50;;;23.60;99.90;;;;;;5080657;28;20295;-81
2022/07/05 07:44:47;;;;;;;11.90;11.50;;;23.70;99.90;;;;;;5083160;28;20264;-81
2022/07/05 07:47:14;;;;;;;11.65;11.25;;;23.80;99.90;;;;;;5079256;28;20318;-81
2022/07/05 07:49:43;;;;;;;12.00;11.60;;;23.90;99.90;;;;;;5078254;28;20237;-81
2022/07/05 07:52:11;;;;;;;12.02;11.63;;;24.00;99.90;;;;;;5077778;28;20240;-81
2022/07/05 07:54:38;;;;;;;11.82;11.43;;;23.90;99.90;;;;;;5078854;28;20253;-80
2022/07/05 07:57:06;;;;;;;12.20;11.80;;;24.00;99.90;;;;;;5076795;28;20332;-81
2022/07/05 07:59:34;;;;;;;11.82;11.43;;;23.90;99.90;;;;;;5077785;28;20349;-81
2022/07/05 08:02:02;;;;;;;12.07;11.68;;;24.00;99.90;;;;;;5078858;28;20380;-81
2022/07/05 08:04:30;;;;;;;12.27;11.88;;;24.00;99.90;;;;;;5076682;28;20234;-81
2022/07/05 08:06:59;;;;;;;11.77;11.38;;;24.10;99.90;;;;;;5076721;28;20317;-81
2022/07/05 08:09:26;;;;;;;11.90;11.50;;;24.00;99.90;;;;;;5077982;28;20240;-81
2022/07/05 08:11:57;;;;;;;12.00;11.60;;;24.10;99.90;;;;;;5080237;28;20238;-81
2022/07/05 08:14:25;;;;;;;11.93;11.52;;;24.20;99.90;;;;;;5080036;28;20234;-81
2022/07/05 08:16:53;;;;;;;11.85;11.45;;;24.20;99.90;;;;;;5077369;28;20284;-80
2022/07/05 08:22:08;;;;;;;11.75;11.35;;;24.50;99.90;;;;;;5064710;28;20230;-81
2022/07/05 08:24:37;;;;;;;11.80;11.40;;;24.70;99.90;;;;;;5079117;28;20230;-81
2022/07/05 08:27:05;;;;;;;11.30;10.95;;;24.90;99.90;;;;;;5079973;28;20242;-81
2022/07/05 08:29:32;;;;;;;11.65;11.25;;;25.10;99.90;;;;;;5078320;28;20233;-81
2022/07/05 08:32:00;;;;;;;11.23;10.93;;;25.30;99.90;;;;;;5080018;28;20230;-81
2022/07/05 08:34:28;;;;;;;11.68;11.27;;;25.50;99.90;;;;;;5079678;28;20236;-81
2022/07/05 08:36:55;;;;;;;11.65;11.25;;;25.60;99.90;;;;;;5079339;28;20284;-81
2022/07/05 08:39:24;;;;;;;11.45;11.07;;;25.60;99.90;;;;;;5079788;28;20321;-81
2022/07/05 08:41:52;;;;;;;11.55;11.15;;;25.50;99.90;;;;;;5080041;28;20269;-81
2022/07/05 08:44:23;;;;;;;11.68;11.27;;;25.50;99.90;;;;;;5079468;28;20230;-81
2022/07/05 08:46:52;;;;;;;12.00;11.60;;;25.40;99.90;;;;;;5079448;28;20321;-81
2022/07/05 08:49:24;;;;;;;12.07;11.68;;;25.50;99.90;;;;;;5079544;28;20230;-81
2022/07/05 08:51:55;;;;;;;11.90;11.50;;;25.70;99.90;;;;;;5080499;28;20230;-81
2022/07/05 08:54:25;;;;;;;11.90;11.50;;;26.00;99.90;;;;;;5079951;28;20295;-80
2022/07/05 08:56:53;;;;;;;12.05;11.65;;;26.30;99.90;;;;;;5080417;28;20277;-81
2022/07/05 08:59:21;;;;;;;11.82;11.43;;;26.60;99.90;;;;;;5079952;28;20354;-81
2022/07/05 09:01:50;;;;;;;12.00;11.60;;;26.70;99.90;;;;;;5079556;28;20285;-81
2022/07/05 09:04:19;;;;;;;12.10;11.70;;;26.90;99.90;;;;;;5079343;28;20336;-81
2022/07/05 09:06:50;;;;;;;12.23;11.82;;;27.10;99.90;;;;;;5078683;28;20309;-81
2022/07/05 09:09:19;;;;;;;12.18;11.77;;;27.30;99.90;;;;;;5080332;28;20333;-81
2022/07/05 09:11:48;;;;;;;11.75;11.35;;;27.20;99.90;;;;;;5079256;28;20260;-81
2022/07/05 09:14:23;;;;;;;12.00;11.60;;;26.90;99.90;;;;;;5079560;28;20268;-81
2022/07/05 09:16:50;;;;;;;12.00;11.60;;;26.30;99.90;;;;;;5079572;28;20233;-81
2022/07/05 09:19:19;;;;;;;12.10;11.70;;;26.30;99.90;;;;;;5078223;28;20800;-81
2022/07/05 09:21:47;;;;;;;11.90;11.50;;;26.40;99.90;;;;;;5081647;28;20282;-82
2022/07/05 09:24:14;;;;;;;11.90;11.50;;;26.60;99.90;;;;;;5081769;28;20265;-83
2022/07/05 09:27:16;;;;;;;11.90;11.50;;;27.20;99.90;;;;;;5081488;28;20249;-83
2022/07/05 09:29:56;;;;;;;12.00;11.60;;;27.50;99.90;;;;;;5038458;28;20239;-83
2022/07/05 09:32:30;;;;;;;12.10;11.70;;;27.30;99.90;;;;;;5039629;28;20231;-83
2022/07/05 09:35:00;;;;;;;12.02;11.63;;;27.10;99.90;;;;;;5040324;28;20277;-83
2022/07/05 09:37:44;;;;;;;11.70;11.30;;;27.20;99.90;;;;;;5050463;28;20253;-83
2022/07/05 09:40:12;;;;;;;11.88;11.48;;;27.60;99.90;;;;;;5080712;28;20238;-82
2022/07/05 09:42:41;;;;;;;11.90;11.50;;;28.00;99.90;;;;;;5082234;28;20249;-83
2022/07/05 09:45:10;;;;;;;11.95;11.55;;;28.40;99.90;;;;;;5082271;28;20230;-83
2022/07/05 09:47:37;;;;;;;12.30;11.90;;;28.80;99.90;;;;;;5081034;28;20226;-83
2022/07/05 09:50:07;;;;;;;11.90;11.50;;;28.90;99.90;;;;;;5081501;28;20244;-83
2022/07/05 09:52:36;;;;;;;11.80;11.40;;;28.20;99.90;;;;;;5082274;28;20237;-83
2022/07/05 09:55:06;;;;;;;11.98;11.57;;;27.80;99.90;;;;;;5082055;28;20332;-83
2022/07/05 09:57:36;;;;;;;11.88;11.48;;;27.40;99.90;;;;;;5081836;28;20281;-83
2022/07/05 10:00:08;;;;;;;11.65;11.25;;;27.30;99.90;;;;;;5081684;28;20284;-83
2022/07/05 10:02:40;;;;;;;12.00;11.60;;;27.00;99.90;;;;;;5082280;28;20229;-82
2022/07/05 10:05:13;;;;;;;11.80;11.40;;;26.60;99.90;;;;;;5080550;28;20333;-82
2022/07/05 10:07:44;;;;;;;12.30;11.90;;;26.80;99.90;;;;;;5081738;28;20219;-82
2022/07/05 10:10:13;;;;;;;12.18;11.77;;;27.20;99.90;;;;;;5080860;28;20288;-82
2022/07/05 10:12:43;;;;;;;12.15;11.75;;;27.90;99.90;;;;;;5081004;28;20671;-83
2022/07/05 10:15:14;;;;;;;11.82;11.43;;;28.40;99.90;;;;;;5080072;28;20230;-82
2022/07/05 10:17:48;;;;;;;11.80;11.40;;;28.70;99.90;;;;;;5080702;28;20234;-83
2022/07/05 10:20:48;;;;;;;11.90;11.50;;;28.30;99.90;;;;;;5081189;28;20246;-83
2022/07/05 10:23:17;;;;;;;12.25;11.85;;;28.30;99.90;;;;;;5080785;28;20254;-83
2022/07/05 10:25:48;;;;;;;12.25;11.85;;;28.50;99.90;;;;;;5081888;28;20276;-83
2022/07/05 10:28:18;;;;;;;12.30;11.90;;;28.50;99.90;;;;;;5082394;28;20222;-83
2022/07/05 10:30:50;;;;;;;12.30;11.90;;;28.80;99.90;;;;;;5082527;28;20456;-83
2022/07/05 10:33:25;;;;;;;12.55;12.15;;;28.90;99.90;;;;;;5084263;28;20226;-83
2022/07/05 10:35:53;;;;;;;12.45;12.05;;;28.80;99.90;;;;;;5093949;27;20312;-83
2022/07/05 10:38:23;;;;;;;12.25;11.85;;;29.30;99.90;;;;;;5080762;28;20278;-83
2022/07/05 10:40:56;;;;;;;12.43;12.02;;;29.70;99.90;;;;;;5077329;28;20237;-82
2022/07/05 10:43:28;;;;;;;12.15;11.75;;;30.00;99.90;;;;;;5078525;28;20263;-82
2022/07/05 10:46:08;;;;;;;;;;;;;;;;;;;;;
2022/07/05 10:48:36;;;;;;;12.48;12.07;;;29.20;99.90;;;;;;5065319;28;20230;-82
2022/07/05 10:51:16;;;;;;;12.20;11.80;;;29.20;99.90;;;;;;5079644;28;20292;-82
2022/07/05 10:54:03;;;;;;;12.20;11.80;;;29.70;99.90;;;;;;5079550;28;20309;-82
2022/07/05 10:56:31;;;;;;;12.40;12.00;;;29.20;99.90;;;;;;5078711;28;20241;-81
2022/07/05 10:59:11;;;;;;;12.02;11.63;;;28.90;99.90;;;;;;5078202;28;20709;-81
2022/07/05 11:01:43;;;;;;;11.85;11.45;;;28.80;99.90;;;;;;5079658;28;20322;-82
2022/07/05 11:04:38;;;;;;;12.30;11.90;;;29.10;99.90;;;;;;5079523;28;20626;-82
2022/07/05 11:07:13;;;;;;;12.23;11.82;;;29.70;99.90;;;;;;5079267;28;20290;-82
2022/07/05 11:10:02;;;;;;;12.38;11.98;;;30.20;99.90;;;;;;5079160;28;20229;-82
2022/07/05 11:13:08;;;;;;;12.40;12.00;;;30.50;99.90;;;;;;5081260;28;20234;-82
2022/07/05 11:15:35;;;;;;;12.27;11.88;;;30.30;99.90;;;;;;5079148;28;20265;-82
2022/07/05 11:18:52;;;;;;;12.20;11.80;;;30.40;99.90;;;;;;5079697;28;20242;-82
2022/07/05 11:21:21;;;;;;;12.10;11.70;;;30.70;99.90;;;;;;5062725;28;20234;-81
2022/07/05 11:23:50;;;;;;;12.20;11.80;;;29.70;99.90;;;;;;5077528;28;20225;-81
2022/07/05 11:26:19;;;;;;;12.00;11.60;;;29.80;99.90;;;;;;5078377;28;20265;-81
2022/07/05 11:28:49;;;;;;;12.07;11.68;;;29.50;99.90;;;;;;5078789;28;20317;-81
2022/07/05 11:31:43;;;;;;;12.40;12.00;;;29.70;99.90;;;;;;5079753;28;20241;-80
2022/07/05 11:34:17;;;;;;;12.10;11.70;;;29.50;99.90;;;;;;5077229;28;20230;-81
2022/07/05 11:36:44;;;;;;;12.00;11.60;;;29.60;99.90;;;;;;5076524;28;20234;-80
2022/07/05 11:39:19;;;;;;;12.07;11.68;;;29.30;99.90;;;;;;5076340;28;20250;-81
2022/07/05 11:41:49;;;;;;;12.30;11.90;;;29.20;99.90;;;;;;5078063;28;20225;-82
2022/07/05 11:44:17;;;;;;;12.43;12.02;;;28.50;99.90;;;;;;5077603;28;20293;-82
2022/07/05 11:46:54;;;;;;;12.25;11.85;;;28.50;99.90;;;;;;5078964;28;20245;-82
2022/07/05 11:49:24;;;;;;;11.82;11.43;;;29.10;99.90;;;;;;5078948;28;20304;-82
2022/07/05 11:51:57;;;;;;;11.90;11.50;;;29.50;99.90;;;;;;5079197;28;20246;-82
2022/07/05 11:54:25;;;;;;;12.20;11.80;;;29.30;99.90;;;;;;5079246;28;20264;-82
2022/07/05 11:56:53;;;;;;;11.98;11.57;;;29.00;99.90;;;;;;5078140;28;20238;-81
2022/07/05 11:59:21;;;;;;;12.15;11.75;;;28.90;99.90;;;;;;5078901;28;20261;-81
2022/07/05 12:01:49;;;;;;;12.05;11.65;;;28.90;99.90;;;;;;5078496;28;20236;-81
2022/07/05 12:04:25;;;;;;;12.15;11.75;;;28.90;99.90;;;;;;5079640;28;20234;-81
2022/07/05 12:06:53;;;;;;;12.20;11.80;;;29.30;99.90;;;;;;5082791;28;20252;-81
2022/07/05 12:09:25;;;;;;;11.80;11.40;;;29.40;99.90;;;;;;5082908;28;20257;-81
2022/07/05 12:14:48;;;;;;;11.80;11.40;;;29.60;99.90;;;;;;5084266;28;20301;-81
2022/07/05 12:17:19;;;;;;;11.52;11.15;;;29.30;99.90;;;;;;5082787;28;20241;-81
2022/07/05 12:19:48;;;;;;;11.90;11.50;;;28.50;99.90;;;;;;5082251;28;20230;-81
2022/07/05 12:22:16;;;;;;;11.82;11.43;;;28.10;99.90;;;;;;5082310;28;20218;-81
2022/07/05 12:24:43;;;;;;;12.00;11.60;;;28.20;99.90;;;;;;5082059;28;20294;-81
2022/07/05 12:27:12;;;;;;;11.93;11.52;;;28.10;99.90;;;;;;5088322;28;20232;-81
2022/07/05 12:29:40;;;;;;;12.10;11.70;;;28.00;99.90;;;;;;5092910;28;20236;-81
2022/07/05 12:32:09;;;;;;;12.05;11.65;;;27.80;99.90;;;;;;5082542;28;20222;-81
2022/07/05 12:34:37;;;;;;;12.48;12.07;;;27.70;99.90;;;;;;5082554;28;20230;-81
2022/07/05 12:37:06;;;;;;;12.15;11.75;;;27.70;99.90;;;;;;5082775;28;20248;-81
2022/07/05 12:39:33;;;;;;;12.30;11.90;;;28.40;99.90;;;;;;5082526;28;20333;-81
2022/07/05 12:42:01;;;;;;;12.02;11.63;;;29.10;99.90;;;;;;5081851;28;20226;-82
2022/07/05 12:44:28;;;;;;;12.07;11.68;;;29.90;99.90;;;;;;5082097;28;20230;-82
2022/07/05 12:47:06;;;;;;;11.88;11.48;;;30.50;99.90;;;;;;5082821;28;20265;-82
2022/07/05 12:49:53;;;;;;;12.13;11.73;;;30.70;99.90;;;;;;5081898;28;20291;-82
2022/07/05 12:52:22;;;;;;;11.80;11.40;;;29.90;99.90;;;;;;5082444;28;20222;-81